sensor_id;sensor_type;location;lat;lon;timestamp;P1;durP1;ratioP1;P2;durP2;ratioP2
37231;SDS011;23125;48.156;15.954;2023-12-28T00:01:26;7.47;;;3.72;;
37231;SDS011;23125;48.156;15.954;2023-12-28T00:03:52;6.82;;;3.72;;
37231;SDS011;23125;48.156;15.954;2023-12-28T00:06:17;6.30;;;3.20;;
37231;SDS011;23125;48.156;15.954;2023-12-28T00:08:43;6.50;;;3.53;;
37231;SDS011;23125;48.156;15.954;2023-12-28T00:11:09;5.45;;;3.58;;
37231;SDS011;23125;48.156;15.954;2023-12-28T00:13:35;6.65;;;3.75;;
37231;SDS011;23125;48.156;15.954;2023-12-28T00:16:01;5.60;;;3.80;;
37231;SDS011;23125;48.156;15.954;2023-12-28T00:18:27;7.15;;;4.38;;
37231;SDS011;23125;48.156;15.954;2023-12-28T00:20:52;7.50;;;3.72;;
37231;SDS011;23125;48.156;15.954;2023-12-28T00:23:18;6.95;;;3.85;;
37231;SDS011;23125;48.156;15.954;2023-12-28T00:25:47;5.82;;;3.45;;
37231;SDS011;23125;48.156;15.954;2023-12-28T00:28:13;7.07;;;3.42;;
37231;SDS011;23125;48.156;15.954;2023-12-28T00:30:39;7.88;;;3.53;;
37231;SDS011;23125;48.156;15.954;2023-12-28T00:33:04;7.07;;;3.53;;
37231;SDS011;23125;48.156;15.954;2023-12-28T00:35:30;6.60;;;3.40;;
37231;SDS011;23125;48.156;15.954;2023-12-28T00:37:56;7.95;;;3.58;;
37231;SDS011;23125;48.156;15.954;2023-12-28T00:40:22;6.13;;;3.42;;
37231;SDS011;23125;48.156;15.954;2023-12-28T00:42:48;4.35;;;2.90;;
37231;SDS011;23125;48.156;15.954;2023-12-28T00:45:14;5.15;;;3.63;;
37231;SDS011;23125;48.156;15.954;2023-12-28T00:47:40;6.22;;;2.95;;
37231;SDS011;23125;48.156;15.954;2023-12-28T00:50:08;4.93;;;3.30;;
37231;SDS011;23125;48.156;15.954;2023-12-28T00:52:37;5.43;;;2.80;;
37231;SDS011;23125;48.156;15.954;2023-12-28T00:55:04;4.28;;;2.88;;
37231;SDS011;23125;48.156;15.954;2023-12-28T00:57:30;5.47;;;2.60;;
37231;SDS011;23125;48.156;15.954;2023-12-28T00:59:56;5.93;;;3.22;;
37231;SDS011;23125;48.156;15.954;2023-12-28T01:02:22;5.22;;;3.17;;
37231;SDS011;23125;48.156;15.954;2023-12-28T01:04:48;4.18;;;2.65;;
37231;SDS011;23125;48.156;15.954;2023-12-28T01:07:13;6.15;;;2.53;;
37231;SDS011;23125;48.156;15.954;2023-12-28T01:09:39;4.35;;;2.67;;
37231;SDS011;23125;48.156;15.954;2023-12-28T01:12:05;6.00;;;3.40;;
37231;SDS011;23125;48.156;15.954;2023-12-28T01:14:31;5.88;;;2.85;;
37231;SDS011;23125;48.156;15.954;2023-12-28T01:16:57;6.38;;;3.33;;
37231;SDS011;23125;48.156;15.954;2023-12-28T01:19:23;6.30;;;3.00;;
37231;SDS011;23125;48.156;15.954;2023-12-28T01:21:49;5.38;;;3.10;;
37231;SDS011;23125;48.156;15.954;2023-12-28T01:24:15;4.15;;;2.60;;
37231;SDS011;23125;48.156;15.954;2023-12-28T01:26:41;4.47;;;2.58;;
37231;SDS011;23125;48.156;15.954;2023-12-28T01:29:07;4.97;;;2.70;;
37231;SDS011;23125;48.156;15.954;2023-12-28T01:31:34;6.05;;;3.17;;
37231;SDS011;23125;48.156;15.954;2023-12-28T01:34:00;4.47;;;2.50;;
37231;SDS011;23125;48.156;15.954;2023-12-28T01:36:26;4.53;;;2.58;;
37231;SDS011;23125;48.156;15.954;2023-12-28T01:38:54;3.97;;;2.42;;
37231;SDS011;23125;48.156;15.954;2023-12-28T01:41:21;7.93;;;2.92;;
37231;SDS011;23125;48.156;15.954;2023-12-28T01:43:47;5.53;;;2.65;;
37231;SDS011;23125;48.156;15.954;2023-12-28T01:46:20;5.28;;;2.55;;
37231;SDS011;23125;48.156;15.954;2023-12-28T01:48:47;3.38;;;2.10;;
37231;SDS011;23125;48.156;15.954;2023-12-28T01:51:15;3.60;;;2.50;;
37231;SDS011;23125;48.156;15.954;2023-12-28T01:53:41;4.63;;;2.67;;
37231;SDS011;23125;48.156;15.954;2023-12-28T01:56:08;5.25;;;2.42;;
37231;SDS011;23125;48.156;15.954;2023-12-28T01:58:35;7.93;;;3.33;;
37231;SDS011;23125;48.156;15.954;2023-12-28T02:01:02;4.05;;;2.35;;
37231;SDS011;23125;48.156;15.954;2023-12-28T02:03:29;3.47;;;2.00;;
37231;SDS011;23125;48.156;15.954;2023-12-28T02:05:55;4.03;;;2.65;;
37231;SDS011;23125;48.156;15.954;2023-12-28T02:08:21;7.63;;;2.55;;
37231;SDS011;23125;48.156;15.954;2023-12-28T02:10:46;4.45;;;2.38;;
37231;SDS011;23125;48.156;15.954;2023-12-28T02:13:13;4.70;;;2.95;;
37231;SDS011;23125;48.156;15.954;2023-12-28T02:15:39;4.00;;;2.33;;
37231;SDS011;23125;48.156;15.954;2023-12-28T02:18:06;5.85;;;2.92;;
37231;SDS011;23125;48.156;15.954;2023-12-28T02:20:45;4.95;;;2.50;;
37231;SDS011;23125;48.156;15.954;2023-12-28T02:23:12;3.97;;;2.33;;
37231;SDS011;23125;48.156;15.954;2023-12-28T02:25:38;5.47;;;2.92;;
37231;SDS011;23125;48.156;15.954;2023-12-28T02:28:04;3.63;;;2.53;;
37231;SDS011;23125;48.156;15.954;2023-12-28T02:30:30;3.38;;;2.58;;
37231;SDS011;23125;48.156;15.954;2023-12-28T02:38:20;4.90;;;2.22;;
37231;SDS011;23125;48.156;15.954;2023-12-28T02:40:48;5.70;;;2.22;;
37231;SDS011;23125;48.156;15.954;2023-12-28T02:43:15;6.13;;;2.80;;
37231;SDS011;23125;48.156;15.954;2023-12-28T02:45:41;4.80;;;2.47;;
37231;SDS011;23125;48.156;15.954;2023-12-28T02:48:07;5.55;;;3.03;;
37231;SDS011;23125;48.156;15.954;2023-12-28T02:50:33;5.00;;;2.38;;
37231;SDS011;23125;48.156;15.954;2023-12-28T02:53:00;4.47;;;2.50;;
37231;SDS011;23125;48.156;15.954;2023-12-28T02:55:26;8.75;;;3.47;;
37231;SDS011;23125;48.156;15.954;2023-12-28T02:57:53;5.25;;;2.88;;
37231;SDS011;23125;48.156;15.954;2023-12-28T03:00:21;4.60;;;2.78;;
37231;SDS011;23125;48.156;15.954;2023-12-28T03:02:47;3.90;;;2.63;;
37231;SDS011;23125;48.156;15.954;2023-12-28T03:05:13;5.85;;;2.53;;
37231;SDS011;23125;48.156;15.954;2023-12-28T03:07:38;4.95;;;2.75;;
37231;SDS011;23125;48.156;15.954;2023-12-28T03:10:06;5.18;;;2.50;;
37231;SDS011;23125;48.156;15.954;2023-12-28T03:12:32;5.22;;;2.78;;
37231;SDS011;23125;48.156;15.954;2023-12-28T03:14:58;3.60;;;2.40;;
37231;SDS011;23125;48.156;15.954;2023-12-28T03:17:24;4.18;;;2.38;;
37231;SDS011;23125;48.156;15.954;2023-12-28T03:19:50;3.60;;;2.63;;
37231;SDS011;23125;48.156;15.954;2023-12-28T03:22:16;4.95;;;2.65;;
37231;SDS011;23125;48.156;15.954;2023-12-28T03:24:42;4.55;;;2.63;;
37231;SDS011;23125;48.156;15.954;2023-12-28T03:27:08;5.10;;;2.55;;
37231;SDS011;23125;48.156;15.954;2023-12-28T03:29:34;6.32;;;3.10;;
37231;SDS011;23125;48.156;15.954;2023-12-28T03:32:00;4.75;;;2.38;;
37231;SDS011;23125;48.156;15.954;2023-12-28T03:34:26;4.75;;;2.67;;
37231;SDS011;23125;48.156;15.954;2023-12-28T03:36:54;5.45;;;2.55;;
37231;SDS011;23125;48.156;15.954;2023-12-28T03:39:21;3.58;;;2.38;;
37231;SDS011;23125;48.156;15.954;2023-12-28T03:41:47;4.78;;;2.50;;
37231;SDS011;23125;48.156;15.954;2023-12-28T03:44:13;6.75;;;3.03;;
37231;SDS011;23125;48.156;15.954;2023-12-28T03:46:39;11.93;;;4.78;;
37231;SDS011;23125;48.156;15.954;2023-12-28T03:49:05;18.45;;;6.57;;
37231;SDS011;23125;48.156;15.954;2023-12-28T03:51:31;8.70;;;4.50;;
37231;SDS011;23125;48.156;15.954;2023-12-28T03:53:56;9.65;;;4.63;;
37231;SDS011;23125;48.156;15.954;2023-12-28T03:56:23;8.25;;;3.97;;
37231;SDS011;23125;48.156;15.954;2023-12-28T03:58:50;6.57;;;3.05;;
37231;SDS011;23125;48.156;15.954;2023-12-28T04:01:18;5.13;;;2.83;;
37231;SDS011;23125;48.156;15.954;2023-12-28T04:03:48;4.72;;;2.67;;
37231;SDS011;23125;48.156;15.954;2023-12-28T04:06:15;5.28;;;3.00;;
37231;SDS011;23125;48.156;15.954;2023-12-28T04:08:41;5.35;;;2.78;;
37231;SDS011;23125;48.156;15.954;2023-12-28T04:11:08;4.53;;;2.45;;
37231;SDS011;23125;48.156;15.954;2023-12-28T04:13:34;10.13;;;3.10;;
37231;SDS011;23125;48.156;15.954;2023-12-28T04:16:01;4.82;;;2.65;;
37231;SDS011;23125;48.156;15.954;2023-12-28T04:18:27;5.95;;;3.25;;
37231;SDS011;23125;48.156;15.954;2023-12-28T04:20:53;4.15;;;2.45;;
37231;SDS011;23125;48.156;15.954;2023-12-28T04:23:19;3.90;;;2.42;;
37231;SDS011;23125;48.156;15.954;2023-12-28T04:25:45;6.97;;;2.97;;
37231;SDS011;23125;48.156;15.954;2023-12-28T04:28:11;4.28;;;2.85;;
37231;SDS011;23125;48.156;15.954;2023-12-28T04:30:37;6.88;;;2.88;;
37231;SDS011;23125;48.156;15.954;2023-12-28T04:33:03;7.68;;;3.28;;
37231;SDS011;23125;48.156;15.954;2023-12-28T04:35:29;12.00;;;5.78;;
37231;SDS011;23125;48.156;15.954;2023-12-28T04:37:55;8.05;;;4.05;;
37231;SDS011;23125;48.156;15.954;2023-12-28T04:40:21;6.68;;;3.60;;
37231;SDS011;23125;48.156;15.954;2023-12-28T04:42:47;4.88;;;3.30;;
37231;SDS011;23125;48.156;15.954;2023-12-28T04:45:13;7.13;;;3.85;;
37231;SDS011;23125;48.156;15.954;2023-12-28T04:47:39;6.32;;;3.83;;
37231;SDS011;23125;48.156;15.954;2023-12-28T04:50:05;6.88;;;3.88;;
37231;SDS011;23125;48.156;15.954;2023-12-28T04:52:32;8.10;;;4.72;;
37231;SDS011;23125;48.156;15.954;2023-12-28T04:54:58;6.43;;;4.18;;
37231;SDS011;23125;48.156;15.954;2023-12-28T04:57:24;6.30;;;3.97;;
37231;SDS011;23125;48.156;15.954;2023-12-28T04:59:52;7.05;;;3.75;;
37231;SDS011;23125;48.156;15.954;2023-12-28T05:02:17;8.57;;;4.53;;
37231;SDS011;23125;48.156;15.954;2023-12-28T05:04:43;6.70;;;4.53;;
37231;SDS011;23125;48.156;15.954;2023-12-28T05:07:09;6.15;;;3.40;;
37231;SDS011;23125;48.156;15.954;2023-12-28T05:09:35;7.25;;;4.13;;
37231;SDS011;23125;48.156;15.954;2023-12-28T05:12:01;6.75;;;3.78;;
37231;SDS011;23125;48.156;15.954;2023-12-28T05:14:28;6.55;;;3.95;;
37231;SDS011;23125;48.156;15.954;2023-12-28T05:16:54;9.45;;;4.32;;
37231;SDS011;23125;48.156;15.954;2023-12-28T05:19:19;6.50;;;3.80;;
37231;SDS011;23125;48.156;15.954;2023-12-28T05:21:45;7.72;;;4.30;;
37231;SDS011;23125;48.156;15.954;2023-12-28T05:24:13;8.30;;;4.75;;
37231;SDS011;23125;48.156;15.954;2023-12-28T05:26:39;11.88;;;4.78;;
37231;SDS011;23125;48.156;15.954;2023-12-28T05:29:05;7.88;;;4.90;;
37231;SDS011;23125;48.156;15.954;2023-12-28T05:31:30;10.10;;;4.90;;
37231;SDS011;23125;48.156;15.954;2023-12-28T05:33:56;7.15;;;4.45;;
37231;SDS011;23125;48.156;15.954;2023-12-28T05:36:24;8.70;;;4.82;;
37231;SDS011;23125;48.156;15.954;2023-12-28T05:38:50;7.35;;;3.92;;
37231;SDS011;23125;48.156;15.954;2023-12-28T05:41:16;10.88;;;3.92;;
37231;SDS011;23125;48.156;15.954;2023-12-28T05:43:42;9.80;;;4.63;;
37231;SDS011;23125;48.156;15.954;2023-12-28T05:46:08;6.68;;;4.13;;
37231;SDS011;23125;48.156;15.954;2023-12-28T05:48:34;8.10;;;4.63;;
37231;SDS011;23125;48.156;15.954;2023-12-28T05:51:00;9.82;;;4.47;;
37231;SDS011;23125;48.156;15.954;2023-12-28T05:53:26;10.35;;;4.75;;
37231;SDS011;23125;48.156;15.954;2023-12-28T05:55:53;8.77;;;4.40;;
37231;SDS011;23125;48.156;15.954;2023-12-28T05:58:19;8.55;;;4.55;;
37231;SDS011;23125;48.156;15.954;2023-12-28T06:00:45;8.65;;;4.35;;
37231;SDS011;23125;48.156;15.954;2023-12-28T06:03:14;9.50;;;5.43;;
37231;SDS011;23125;48.156;15.954;2023-12-28T06:05:40;8.70;;;4.80;;
37231;SDS011;23125;48.156;15.954;2023-12-28T06:08:06;9.30;;;5.22;;
37231;SDS011;23125;48.156;15.954;2023-12-28T06:10:32;9.07;;;4.60;;
37231;SDS011;23125;48.156;15.954;2023-12-28T06:12:58;10.13;;;5.13;;
37231;SDS011;23125;48.156;15.954;2023-12-28T06:15:24;7.03;;;3.75;;
37231;SDS011;23125;48.156;15.954;2023-12-28T06:17:50;8.23;;;5.28;;
37231;SDS011;23125;48.156;15.954;2023-12-28T06:20:15;9.30;;;5.28;;
37231;SDS011;23125;48.156;15.954;2023-12-28T06:22:41;7.45;;;5.05;;
37231;SDS011;23125;48.156;15.954;2023-12-28T06:25:08;8.73;;;4.50;;
37231;SDS011;23125;48.156;15.954;2023-12-28T06:27:36;10.43;;;5.55;;
37231;SDS011;23125;48.156;15.954;2023-12-28T06:30:02;10.05;;;5.28;;
37231;SDS011;23125;48.156;15.954;2023-12-28T06:32:28;8.73;;;5.15;;
37231;SDS011;23125;48.156;15.954;2023-12-28T06:34:54;9.02;;;5.05;;
37231;SDS011;23125;48.156;15.954;2023-12-28T06:37:20;9.63;;;5.85;;
37231;SDS011;23125;48.156;15.954;2023-12-28T06:39:46;9.18;;;5.00;;
37231;SDS011;23125;48.156;15.954;2023-12-28T06:42:12;9.02;;;4.80;;
37231;SDS011;23125;48.156;15.954;2023-12-28T06:44:37;8.55;;;4.85;;
37231;SDS011;23125;48.156;15.954;2023-12-28T06:47:03;11.02;;;5.18;;
37231;SDS011;23125;48.156;15.954;2023-12-28T06:49:29;8.63;;;5.10;;
37231;SDS011;23125;48.156;15.954;2023-12-28T06:51:55;9.90;;;4.55;;
37231;SDS011;23125;48.156;15.954;2023-12-28T06:54:21;9.80;;;5.50;;
37231;SDS011;23125;48.156;15.954;2023-12-28T06:56:47;12.40;;;5.88;;
37231;SDS011;23125;48.156;15.954;2023-12-28T06:59:13;12.88;;;4.95;;
37231;SDS011;23125;48.156;15.954;2023-12-28T07:01:40;12.07;;;5.40;;
37231;SDS011;23125;48.156;15.954;2023-12-28T07:04:06;12.73;;;5.68;;
37231;SDS011;23125;48.156;15.954;2023-12-28T07:06:33;12.50;;;6.25;;
37231;SDS011;23125;48.156;15.954;2023-12-28T07:08:59;15.02;;;6.70;;
37231;SDS011;23125;48.156;15.954;2023-12-28T07:11:24;13.02;;;6.57;;
37231;SDS011;23125;48.156;15.954;2023-12-28T07:13:52;17.60;;;7.43;;
37231;SDS011;23125;48.156;15.954;2023-12-28T07:16:18;13.95;;;6.28;;
37231;SDS011;23125;48.156;15.954;2023-12-28T07:18:44;16.65;;;8.07;;
37231;SDS011;23125;48.156;15.954;2023-12-28T07:21:10;15.32;;;7.47;;
37231;SDS011;23125;48.156;15.954;2023-12-28T07:23:36;14.75;;;7.47;;
37231;SDS011;23125;48.156;15.954;2023-12-28T07:26:03;17.73;;;7.57;;
37231;SDS011;23125;48.156;15.954;2023-12-28T07:28:30;13.73;;;7.60;;
37231;SDS011;23125;48.156;15.954;2023-12-28T07:30:56;15.27;;;7.90;;
37231;SDS011;23125;48.156;15.954;2023-12-28T07:33:22;16.15;;;7.47;;
37231;SDS011;23125;48.156;15.954;2023-12-28T07:35:48;11.52;;;6.15;;
37231;SDS011;23125;48.156;15.954;2023-12-28T07:38:14;10.95;;;6.47;;
37231;SDS011;23125;48.156;15.954;2023-12-28T07:40:40;12.43;;;7.45;;
37231;SDS011;23125;48.156;15.954;2023-12-28T07:43:06;12.18;;;7.18;;
37231;SDS011;23125;48.156;15.954;2023-12-28T07:45:32;10.98;;;6.35;;
37231;SDS011;23125;48.156;15.954;2023-12-28T07:48:01;11.75;;;6.15;;
37231;SDS011;23125;48.156;15.954;2023-12-28T07:50:26;11.77;;;6.13;;
37231;SDS011;23125;48.156;15.954;2023-12-28T07:52:52;8.15;;;5.93;;
37231;SDS011;23125;48.156;15.954;2023-12-28T07:55:18;8.68;;;5.20;;
37231;SDS011;23125;48.156;15.954;2023-12-28T07:57:45;9.88;;;5.93;;
37231;SDS011;23125;48.156;15.954;2023-12-28T08:00:11;8.27;;;5.45;;
37231;SDS011;23125;48.156;15.954;2023-12-28T08:02:37;11.60;;;5.78;;
37231;SDS011;23125;48.156;15.954;2023-12-28T08:05:04;8.27;;;4.82;;
37231;SDS011;23125;48.156;15.954;2023-12-28T08:07:30;8.98;;;5.22;;
37231;SDS011;23125;48.156;15.954;2023-12-28T08:09:56;9.57;;;4.80;;
37231;SDS011;23125;48.156;15.954;2023-12-28T08:12:22;12.32;;;6.88;;
37231;SDS011;23125;48.156;15.954;2023-12-28T08:14:49;12.55;;;6.20;;
37231;SDS011;23125;48.156;15.954;2023-12-28T08:17:15;11.45;;;5.93;;
37231;SDS011;23125;48.156;15.954;2023-12-28T08:19:41;15.20;;;7.57;;
37231;SDS011;23125;48.156;15.954;2023-12-28T08:22:07;11.57;;;6.80;;
37231;SDS011;23125;48.156;15.954;2023-12-28T08:24:33;7.38;;;4.45;;
37231;SDS011;23125;48.156;15.954;2023-12-28T08:26:59;6.63;;;3.45;;
37231;SDS011;23125;48.156;15.954;2023-12-28T08:29:26;6.55;;;2.78;;
37231;SDS011;23125;48.156;15.954;2023-12-28T08:31:52;25.60;;;8.35;;
37231;SDS011;23125;48.156;15.954;2023-12-28T08:34:18;4.53;;;2.42;;
37231;SDS011;23125;48.156;15.954;2023-12-28T08:36:44;3.60;;;1.90;;
37231;SDS011;23125;48.156;15.954;2023-12-28T08:39:10;3.90;;;2.30;;
37231;SDS011;23125;48.156;15.954;2023-12-28T08:41:35;3.15;;;1.70;;
37231;SDS011;23125;48.156;15.954;2023-12-28T08:44:01;3.10;;;1.45;;
37231;SDS011;23125;48.156;15.954;2023-12-28T08:46:27;5.30;;;1.80;;
37231;SDS011;23125;48.156;15.954;2023-12-28T08:48:54;2.92;;;1.50;;
37231;SDS011;23125;48.156;15.954;2023-12-28T08:51:19;6.03;;;2.25;;
37231;SDS011;23125;48.156;15.954;2023-12-28T08:53:46;4.65;;;2.35;;
37231;SDS011;23125;48.156;15.954;2023-12-28T08:56:21;4.25;;;1.90;;
37231;SDS011;23125;48.156;15.954;2023-12-28T08:58:48;4.53;;;2.63;;
37231;SDS011;23125;48.156;15.954;2023-12-28T09:01:20;10.13;;;3.05;;
37231;SDS011;23125;48.156;15.954;2023-12-28T09:03:48;5.80;;;2.28;;
37231;SDS011;23125;48.156;15.954;2023-12-28T09:06:15;6.40;;;3.00;;
37231;SDS011;23125;48.156;15.954;2023-12-28T09:08:45;6.15;;;2.70;;
37231;SDS011;23125;48.156;15.954;2023-12-28T09:11:13;2.40;;;1.55;;
37231;SDS011;23125;48.156;15.954;2023-12-28T09:13:40;2.85;;;1.83;;
37231;SDS011;23125;48.156;15.954;2023-12-28T09:18:36;5.50;;;1.88;;
37231;SDS011;23125;48.156;15.954;2023-12-28T09:21:03;2.83;;;1.30;;
37231;SDS011;23125;48.156;15.954;2023-12-28T09:23:31;12.85;;;5.55;;
37231;SDS011;23125;48.156;15.954;2023-12-28T09:25:58;12.73;;;5.35;;
37231;SDS011;23125;48.156;15.954;2023-12-28T09:28:31;3.13;;;1.63;;
37231;SDS011;23125;48.156;15.954;2023-12-28T09:30:57;2.35;;;1.10;;
37231;SDS011;23125;48.156;15.954;2023-12-28T09:33:25;27.15;;;10.00;;
37231;SDS011;23125;48.156;15.954;2023-12-28T09:35:51;2.67;;;1.48;;
37231;SDS011;23125;48.156;15.954;2023-12-28T09:38:18;1.92;;;1.27;;
37231;SDS011;23125;48.156;15.954;2023-12-28T09:40:45;2.47;;;1.20;;
37231;SDS011;23125;48.156;15.954;2023-12-28T09:45:50;2.47;;;1.45;;
37231;SDS011;23125;48.156;15.954;2023-12-28T09:48:17;2.17;;;1.50;;
37231;SDS011;23125;48.156;15.954;2023-12-28T09:50:44;1.88;;;0.95;;
37231;SDS011;23125;48.156;15.954;2023-12-28T09:53:11;3.15;;;1.70;;
37231;SDS011;23125;48.156;15.954;2023-12-28T09:55:38;4.38;;;1.90;;
37231;SDS011;23125;48.156;15.954;2023-12-28T09:58:04;5.70;;;3.28;;
37231;SDS011;23125;48.156;15.954;2023-12-28T10:00:32;15.38;;;7.45;;
37231;SDS011;23125;48.156;15.954;2023-12-28T10:02:58;2.50;;;1.58;;
37231;SDS011;23125;48.156;15.954;2023-12-28T10:05:24;9.93;;;4.03;;
37231;SDS011;23125;48.156;15.954;2023-12-28T10:07:50;7.18;;;3.40;;
37231;SDS011;23125;48.156;15.954;2023-12-28T10:10:16;15.15;;;7.25;;
37231;SDS011;23125;48.156;15.954;2023-12-28T10:12:43;9.25;;;3.75;;
37231;SDS011;23125;48.156;15.954;2023-12-28T10:15:09;7.45;;;3.75;;
37231;SDS011;23125;48.156;15.954;2023-12-28T10:17:35;11.27;;;2.88;;
37231;SDS011;23125;48.156;15.954;2023-12-28T10:20:01;7.25;;;2.80;;
37231;SDS011;23125;48.156;15.954;2023-12-28T10:22:32;4.83;;;2.63;;
37231;SDS011;23125;48.156;15.954;2023-12-28T10:25:02;3.03;;;1.63;;
37231;SDS011;23125;48.156;15.954;2023-12-28T10:27:29;4.03;;;1.90;;
37231;SDS011;23125;48.156;15.954;2023-12-28T10:29:55;3.97;;;2.03;;
37231;SDS011;23125;48.156;15.954;2023-12-28T10:32:24;4.82;;;2.05;;
37231;SDS011;23125;48.156;15.954;2023-12-28T10:34:51;3.42;;;1.90;;
37231;SDS011;23125;48.156;15.954;2023-12-28T10:37:18;4.13;;;2.28;;
37231;SDS011;23125;48.156;15.954;2023-12-28T10:39:48;3.85;;;1.88;;
37231;SDS011;23125;48.156;15.954;2023-12-28T10:42:33;6.88;;;2.08;;
37231;SDS011;23125;48.156;15.954;2023-12-28T10:45:10;3.92;;;2.42;;
37231;SDS011;23125;48.156;15.954;2023-12-28T10:47:37;3.75;;;2.17;;
37231;SDS011;23125;48.156;15.954;2023-12-28T10:50:07;4.38;;;2.28;;
37231;SDS011;23125;48.156;15.954;2023-12-28T10:52:37;3.53;;;2.15;;
37231;SDS011;23125;48.156;15.954;2023-12-28T10:55:17;3.35;;;1.65;;
37231;SDS011;23125;48.156;15.954;2023-12-28T10:58:21;4.15;;;2.22;;
37231;SDS011;23125;48.156;15.954;2023-12-28T11:01:07;3.47;;;1.55;;
37231;SDS011;23125;48.156;15.954;2023-12-28T11:03:37;3.63;;;1.92;;
37231;SDS011;23125;48.156;15.954;2023-12-28T11:06:07;3.42;;;1.35;;
37231;SDS011;23125;48.156;15.954;2023-12-28T11:08:34;2.67;;;1.50;;
37231;SDS011;23125;48.156;15.954;2023-12-28T11:11:02;3.03;;;1.83;;
37231;SDS011;23125;48.156;15.954;2023-12-28T11:13:30;2.30;;;1.40;;
37231;SDS011;23125;48.156;15.954;2023-12-28T11:15:58;2.38;;;1.15;;
37231;SDS011;23125;48.156;15.954;2023-12-28T11:18:25;2.42;;;1.23;;
37231;SDS011;23125;48.156;15.954;2023-12-28T11:20:53;2.67;;;1.05;;
37231;SDS011;23125;48.156;15.954;2023-12-28T11:23:20;2.47;;;1.52;;
37231;SDS011;23125;48.156;15.954;2023-12-28T11:25:46;2.45;;;1.30;;
37231;SDS011;23125;48.156;15.954;2023-12-28T11:28:12;1.67;;;1.08;;
37231;SDS011;23125;48.156;15.954;2023-12-28T11:30:41;1.98;;;1.23;;
37231;SDS011;23125;48.156;15.954;2023-12-28T11:33:10;2.30;;;1.50;;
37231;SDS011;23125;48.156;15.954;2023-12-28T11:35:36;2.83;;;1.30;;
37231;SDS011;23125;48.156;15.954;2023-12-28T11:38:08;2.93;;;1.40;;
37231;SDS011;23125;48.156;15.954;2023-12-28T11:40:42;2.25;;;1.30;;
37231;SDS011;23125;48.156;15.954;2023-12-28T11:43:18;1.92;;;1.02;;
37231;SDS011;23125;48.156;15.954;2023-12-28T11:45:49;2.25;;;1.45;;
37231;SDS011;23125;48.156;15.954;2023-12-28T11:48:22;2.15;;;1.20;;
37231;SDS011;23125;48.156;15.954;2023-12-28T11:50:56;2.90;;;1.30;;
37231;SDS011;23125;48.156;15.954;2023-12-28T11:53:23;2.92;;;1.70;;
37231;SDS011;23125;48.156;15.954;2023-12-28T11:55:50;2.60;;;1.65;;
37231;SDS011;23125;48.156;15.954;2023-12-28T11:58:17;2.58;;;1.50;;
37231;SDS011;23125;48.156;15.954;2023-12-28T12:00:44;3.72;;;1.60;;
37231;SDS011;23125;48.156;15.954;2023-12-28T12:03:10;2.75;;;1.70;;
37231;SDS011;23125;48.156;15.954;2023-12-28T12:05:37;3.70;;;1.50;;
37231;SDS011;23125;48.156;15.954;2023-12-28T12:08:08;3.05;;;1.55;;
37231;SDS011;23125;48.156;15.954;2023-12-28T12:10:40;2.22;;;1.10;;
37231;SDS011;23125;48.156;15.954;2023-12-28T12:13:07;2.40;;;1.35;;
37231;SDS011;23125;48.156;15.954;2023-12-28T12:15:33;2.33;;;1.60;;
37231;SDS011;23125;48.156;15.954;2023-12-28T12:18:00;2.70;;;1.48;;
37231;SDS011;23125;48.156;15.954;2023-12-28T12:20:26;2.80;;;1.75;;
37231;SDS011;23125;48.156;15.954;2023-12-28T12:22:57;3.05;;;1.92;;
37231;SDS011;23125;48.156;15.954;2023-12-28T12:25:26;4.35;;;2.60;;
37231;SDS011;23125;48.156;15.954;2023-12-28T12:27:53;2.72;;;1.67;;
37231;SDS011;23125;48.156;15.954;2023-12-28T12:30:19;1.70;;;1.20;;
37231;SDS011;23125;48.156;15.954;2023-12-28T12:32:45;2.58;;;1.48;;
37231;SDS011;23125;48.156;15.954;2023-12-28T12:35:11;2.25;;;1.55;;
37231;SDS011;23125;48.156;15.954;2023-12-28T12:37:40;2.88;;;1.73;;
37231;SDS011;23125;48.156;15.954;2023-12-28T12:40:06;2.10;;;1.42;;
37231;SDS011;23125;48.156;15.954;2023-12-28T12:42:33;3.90;;;1.60;;
37231;SDS011;23125;48.156;15.954;2023-12-28T12:44:59;3.35;;;1.77;;
37231;SDS011;23125;48.156;15.954;2023-12-28T12:47:25;5.03;;;1.80;;
37231;SDS011;23125;48.156;15.954;2023-12-28T12:49:51;2.08;;;1.23;;
37231;SDS011;23125;48.156;15.954;2023-12-28T12:52:18;3.72;;;1.90;;
37231;SDS011;23125;48.156;15.954;2023-12-28T12:54:57;3.10;;;1.65;;
37231;SDS011;23125;48.156;15.954;2023-12-28T12:57:24;2.85;;;1.70;;
37231;SDS011;23125;48.156;15.954;2023-12-28T12:59:51;3.22;;;1.83;;
37231;SDS011;23125;48.156;15.954;2023-12-28T13:02:17;2.38;;;1.40;;
37231;SDS011;23125;48.156;15.954;2023-12-28T13:04:43;2.03;;;1.33;;
37231;SDS011;23125;48.156;15.954;2023-12-28T13:07:09;4.25;;;1.30;;
37231;SDS011;23125;48.156;15.954;2023-12-28T13:09:35;2.65;;;1.02;;
37231;SDS011;23125;48.156;15.954;2023-12-28T13:12:01;3.33;;;1.15;;
37231;SDS011;23125;48.156;15.954;2023-12-28T13:14:28;1.98;;;1.00;;
37231;SDS011;23125;48.156;15.954;2023-12-28T13:16:55;1.67;;;1.00;;
37231;SDS011;23125;48.156;15.954;2023-12-28T13:19:21;2.63;;;1.00;;
37231;SDS011;23125;48.156;15.954;2023-12-28T13:21:47;2.00;;;1.00;;
37231;SDS011;23125;48.156;15.954;2023-12-28T13:24:12;1.65;;;0.80;;
37231;SDS011;23125;48.156;15.954;2023-12-28T13:26:38;2.72;;;0.82;;
37231;SDS011;23125;48.156;15.954;2023-12-28T13:29:04;1.75;;;0.90;;
37231;SDS011;23125;48.156;15.954;2023-12-28T13:31:30;1.15;;;0.70;;
37231;SDS011;23125;48.156;15.954;2023-12-28T13:33:56;2.83;;;0.93;;
37231;SDS011;23125;48.156;15.954;2023-12-28T13:36:22;1.85;;;0.90;;
37231;SDS011;23125;48.156;15.954;2023-12-28T13:38:47;2.75;;;0.93;;
37231;SDS011;23125;48.156;15.954;2023-12-28T13:41:13;2.33;;;0.93;;
37231;SDS011;23125;48.156;15.954;2023-12-28T13:43:39;1.98;;;1.00;;
37231;SDS011;23125;48.156;15.954;2023-12-28T13:46:05;3.58;;;0.98;;
37231;SDS011;23125;48.156;15.954;2023-12-28T13:48:31;1.25;;;0.77;;
37231;SDS011;23125;48.156;15.954;2023-12-28T13:50:57;3.92;;;1.05;;
37231;SDS011;23125;48.156;15.954;2023-12-28T13:53:22;3.08;;;0.93;;
37231;SDS011;23125;48.156;15.954;2023-12-28T13:55:48;2.35;;;1.00;;
37231;SDS011;23125;48.156;15.954;2023-12-28T13:58:14;1.85;;;0.90;;
37231;SDS011;23125;48.156;15.954;2023-12-28T14:00:40;2.65;;;1.00;;
37231;SDS011;23125;48.156;15.954;2023-12-28T14:03:06;2.88;;;0.93;;
37231;SDS011;23125;48.156;15.954;2023-12-28T14:05:32;2.22;;;1.05;;
37231;SDS011;23125;48.156;15.954;2023-12-28T14:07:57;3.38;;;1.02;;
37231;SDS011;23125;48.156;15.954;2023-12-28T14:10:23;4.10;;;1.00;;
37231;SDS011;23125;48.156;15.954;2023-12-28T14:12:49;2.40;;;0.95;;
37231;SDS011;23125;48.156;15.954;2023-12-28T14:15:15;3.08;;;1.00;;
37231;SDS011;23125;48.156;15.954;2023-12-28T14:17:41;2.25;;;1.15;;
37231;SDS011;23125;48.156;15.954;2023-12-28T14:20:08;0.88;;;0.50;;
37231;SDS011;23125;48.156;15.954;2023-12-28T14:22:37;2.95;;;1.35;;
37231;SDS011;23125;48.156;15.954;2023-12-28T14:25:04;4.53;;;1.65;;
37231;SDS011;23125;48.156;15.954;2023-12-28T14:27:31;2.38;;;1.27;;
37231;SDS011;23125;48.156;15.954;2023-12-28T14:29:57;3.97;;;1.00;;
37231;SDS011;23125;48.156;15.954;2023-12-28T14:32:23;3.00;;;1.20;;
37231;SDS011;23125;48.156;15.954;2023-12-28T14:34:50;2.95;;;1.33;;
37231;SDS011;23125;48.156;15.954;2023-12-28T14:37:16;2.00;;;0.93;;
37231;SDS011;23125;48.156;15.954;2023-12-28T14:39:43;2.83;;;1.58;;
37231;SDS011;23125;48.156;15.954;2023-12-28T14:42:09;3.15;;;1.17;;